createdAt,value
2022-10-06T00:01:40.668Z,98462.19
2022-10-06T00:04:08.303Z,98462.06
2022-10-06T00:06:35.276Z,98447.66
2022-10-06T00:09:02.685Z,98465.41
2022-10-06T00:11:29.690Z,98457.56
2022-10-06T00:13:59.703Z,98478.31
2022-10-06T00:16:27.173Z,98457.66
2022-10-06T00:18:54.527Z,98430.81
2022-10-06T00:21:21.682Z,98443.78
2022-10-06T00:23:48.652Z,98470.03
2022-10-06T00:26:17.384Z,98460.66
2022-10-06T00:28:47.787Z,98462.34
2022-10-06T00:31:16.417Z,98449.00
2022-10-06T00:33:43.723Z,98461.66
2022-10-06T00:36:11.002Z,98426.34
2022-10-06T00:38:38.302Z,98419.03
2022-10-06T00:41:05.576Z,98445.53
2022-10-06T00:43:43.766Z,98451.44
2022-10-06T00:46:35.351Z,98455.00
2022-10-06T00:49:18.087Z,98461.06
2022-10-06T00:52:13.889Z,98425.66
2022-10-06T00:54:41.814Z,98429.81
2022-10-06T00:57:09.345Z,98406.06
2022-10-06T00:59:37.824Z,98440.38
2022-10-06T01:02:14.139Z,98445.31
2022-10-06T01:04:46.809Z,98459.91
2022-10-06T01:07:14.381Z,98424.31
2022-10-06T01:09:41.834Z,98409.69
2022-10-06T01:12:09.480Z,98426.69
2022-10-06T01:14:39.501Z,98425.34
2022-10-06T01:17:14.451Z,98394.75
2022-10-06T01:19:57.511Z,98444.81
2022-10-06T01:22:31.959Z,98452.66
2022-10-06T01:24:59.303Z,98437.47
2022-10-06T01:27:30.134Z,98416.88
2022-10-06T01:29:58.267Z,98447.38
2022-10-06T01:32:28.160Z,98414.25
2022-10-06T01:34:56.273Z,98422.72
2022-10-06T01:37:23.550Z,98413.66
2022-10-06T01:39:50.573Z,98429.00
2022-10-06T01:42:17.545Z,98398.59
2022-10-06T01:44:44.750Z,98409.50
2022-10-06T01:47:12.089Z,98442.28
2022-10-06T01:49:39.262Z,98433.91
2022-10-06T01:52:06.785Z,98400.13
2022-10-06T01:54:33.920Z,98417.84
2022-10-06T01:57:00.926Z,98427.06
2022-10-06T01:59:27.981Z,98405.34
2022-10-06T02:01:55.264Z,98406.41
2022-10-06T02:04:22.468Z,98384.53
2022-10-06T02:06:50.961Z,98391.38
2022-10-06T02:09:18.760Z,98401.41
2022-10-06T02:11:45.709Z,98354.06
2022-10-06T02:14:13.575Z,98426.75
2022-10-06T02:16:40.868Z,98393.97
2022-10-06T02:19:08.053Z,98406.72
2022-10-06T02:21:35.919Z,98422.75
2022-10-06T02:24:03.241Z,98407.78
2022-10-06T02:26:30.788Z,98426.66
2022-10-06T02:28:57.930Z,98409.63
2022-10-06T02:31:25.565Z,98413.75
2022-10-06T02:33:53.053Z,98409.63
2022-10-06T02:36:20.362Z,98400.16
2022-10-06T02:38:47.397Z,98419.69
2022-10-06T02:41:14.613Z,98401.88
2022-10-06T02:43:41.832Z,98393.41
2022-10-06T02:46:12.984Z,98420.38
2022-10-06T02:48:40.957Z,98423.13
2022-10-06T02:51:12.395Z,98428.34
2022-10-06T02:53:40.264Z,98395.03
2022-10-06T02:56:11.165Z,98394.25
2022-10-06T02:58:43.033Z,98414.97
2022-10-06T03:01:12.883Z,98419.22
2022-10-06T03:03:40.275Z,98405.69
2022-10-06T03:06:22.882Z,98426.09
2022-10-06T03:09:01.441Z,98388.66
2022-10-06T03:11:31.574Z,98387.50
2022-10-06T03:13:59.268Z,98386.59
2022-10-06T03:16:32.240Z,98394.81
2022-10-06T03:19:00.686Z,98412.56
2022-10-06T03:21:30.245Z,98411.28
2022-10-06T03:23:59.225Z,98396.84
2022-10-06T03:26:29.315Z,98395.19
2022-10-06T03:29:48.166Z,98372.44
2022-10-06T03:32:15.720Z,98381.19
2022-10-06T03:34:43.134Z,98346.41
2022-10-06T03:37:10.647Z,98373.88
2022-10-06T03:39:37.909Z,98407.66
2022-10-06T03:42:05.364Z,98389.72
2022-10-06T03:44:35.244Z,98410.81
2022-10-06T03:47:02.889Z,98339.25
2022-10-06T03:49:29.959Z,98379.16
2022-10-06T03:51:57.816Z,98408.81
2022-10-06T03:54:24.767Z,98412.03
2022-10-06T03:57:23.647Z,98401.75
2022-10-06T04:00:00.941Z,98409.41
2022-10-06T04:02:38.519Z,98400.19
2022-10-06T04:05:09.668Z,98381.56
2022-10-06T04:07:36.725Z,98388.50
2022-10-06T04:10:04.176Z,98368.94
2022-10-06T04:12:31.450Z,98412.16
2022-10-06T04:15:00.265Z,98375.91
2022-10-06T04:17:27.294Z,98417.53
2022-10-06T04:19:54.307Z,98391.47
2022-10-06T04:22:21.378Z,98391.19
2022-10-06T04:24:48.614Z,98418.53
2022-10-06T04:27:34.757Z,98414.28
2022-10-06T04:30:01.811Z,98386.84
2022-10-06T04:32:30.102Z,98392.63
2022-10-06T04:34:57.259Z,98413.19
2022-10-06T04:37:24.310Z,98391.28
2022-10-06T04:39:51.270Z,98373.31
2022-10-06T04:42:18.222Z,98386.69
2022-10-06T04:44:45.627Z,98404.22
2022-10-06T04:47:12.913Z,98430.47
2022-10-06T04:49:39.850Z,98427.09
2022-10-06T04:52:07.200Z,98409.53
2022-10-06T04:54:34.380Z,98402.41
2022-10-06T04:57:01.412Z,98390.00
2022-10-06T04:59:54.682Z,98384.66
2022-10-06T05:02:21.852Z,98392.78
2022-10-06T05:04:51.379Z,98413.84
2022-10-06T05:07:18.680Z,98411.69
2022-10-06T05:09:45.611Z,98399.63
2022-10-06T05:12:12.602Z,98388.34
2022-10-06T05:14:39.577Z,98403.56
2022-10-06T05:17:06.730Z,98408.22
2022-10-06T05:19:33.704Z,98408.84
2022-10-06T05:22:00.975Z,98406.91
2022-10-06T05:24:51.817Z,98406.78
2022-10-06T05:27:19.084Z,98422.72
2022-10-06T05:29:46.170Z,98427.50
2022-10-06T05:32:13.160Z,98411.31
2022-10-06T05:34:40.162Z,98423.63
2022-10-06T05:37:07.114Z,98407.38
2022-10-06T05:39:34.336Z,98429.88
2022-10-06T05:42:01.524Z,98429.38
2022-10-06T05:44:28.698Z,98406.66
2022-10-06T05:46:55.558Z,98428.41
2022-10-06T05:49:22.675Z,98416.19
2022-10-06T05:51:49.653Z,98428.66
2022-10-06T05:54:16.947Z,98428.84
2022-10-06T05:56:44.430Z,98428.69
2022-10-06T05:59:11.928Z,98409.09
2022-10-06T06:01:44.027Z,98414.34
2022-10-06T06:04:12.967Z,98404.47
2022-10-06T06:06:41.533Z,98439.47
2022-10-06T06:09:17.021Z,98410.31
2022-10-06T06:11:47.056Z,98412.94
2022-10-06T06:14:41.217Z,98423.94
2022-10-06T06:17:08.476Z,98385.81
2022-10-06T06:19:35.703Z,98401.47
2022-10-06T06:22:02.711Z,98395.41
2022-10-06T06:24:29.936Z,98397.19
2022-10-06T06:26:56.833Z,98413.06
2022-10-06T06:29:24.545Z,98410.91
2022-10-06T06:31:51.937Z,98374.88
2022-10-06T06:34:18.804Z,98380.25
2022-10-06T06:36:47.825Z,98377.06
2022-10-06T06:39:24.314Z,98388.00
2022-10-06T06:41:51.495Z,98379.69
2022-10-06T06:44:19.181Z,98387.91
2022-10-06T06:46:49.421Z,98389.22
2022-10-06T06:49:17.171Z,98387.50
2022-10-06T06:51:50.372Z,98381.84
2022-10-06T06:54:18.471Z,98395.22
2022-10-06T06:56:46.906Z,98337.59
2022-10-06T06:59:14.132Z,98358.59
2022-10-06T07:01:44.778Z,98352.19
2022-10-06T07:04:14.075Z,98384.31
2022-10-06T07:06:42.496Z,98382.72
2022-10-06T07:09:14.720Z,98356.34
2022-10-06T07:11:42.086Z,98384.44
2022-10-06T07:14:12.911Z,98366.78
2022-10-06T07:16:58.490Z,98348.59
2022-10-06T07:19:44.478Z,98366.50
2022-10-06T07:22:30.097Z,98376.28
2022-10-06T07:25:08.219Z,98366.53
2022-10-06T07:27:45.122Z,98349.75
2022-10-06T07:30:22.153Z,98377.50
2022-10-06T07:32:51.035Z,98364.50
2022-10-06T07:35:21.442Z,98375.63
2022-10-06T07:37:49.775Z,98381.00
2022-10-06T07:40:17.849Z,98342.44
2022-10-06T07:42:53.890Z,98374.94
2022-10-06T07:45:39.462Z,98349.31
2022-10-06T07:48:26.186Z,98332.97
2022-10-06T07:50:53.664Z,98365.16
2022-10-06T07:53:20.917Z,98359.22
2022-10-06T07:55:48.703Z,98320.59
2022-10-06T07:58:16.813Z,98349.56
2022-10-06T08:00:45.932Z,98321.28
2022-10-06T08:03:18.444Z,98322.50
2022-10-06T08:05:47.026Z,98310.06
2022-10-06T08:08:15.127Z,98311.47
2022-10-06T08:10:42.916Z,98342.88
2022-10-06T08:13:10.646Z,98333.41
2022-10-06T08:15:37.954Z,98301.03
2022-10-06T08:18:12.415Z,98303.19
2022-10-06T08:20:43.682Z,98265.69
2022-10-06T08:23:12.367Z,98284.94
2022-10-06T08:25:43.571Z,98312.47
2022-10-06T08:28:12.078Z,98305.13
2022-10-06T08:30:40.214Z,98307.44
2022-10-06T08:33:07.458Z,98311.44
2022-10-06T08:35:36.437Z,98264.91
2022-10-06T08:38:03.627Z,98264.75
2022-10-06T08:40:30.904Z,98308.44
2022-10-06T08:43:01.294Z,98272.72
2022-10-06T08:45:38.651Z,98271.91
2022-10-06T08:48:30.372Z,98305.41
2022-10-06T08:51:20.477Z,98304.41
2022-10-06T08:54:10.959Z,98302.72
2022-10-06T08:57:06.032Z,98290.38
2022-10-06T08:59:35.604Z,98249.50
2022-10-06T09:02:07.113Z,98260.84
2022-10-06T09:04:35.018Z,98317.91
2022-10-06T09:07:12.738Z,98266.03
2022-10-06T09:10:01.684Z,98304.69
2022-10-06T09:12:54.905Z,98302.06
2022-10-06T09:15:38.595Z,98300.03
2022-10-06T09:18:22.477Z,98305.69
2022-10-06T09:21:00.761Z,98293.38
2022-10-06T09:23:47.826Z,98251.69
2022-10-06T09:26:19.340Z,98262.38
2022-10-06T09:28:46.753Z,98291.72
2022-10-06T09:31:28.713Z,98300.38
2022-10-06T09:34:07.271Z,98299.72
2022-10-06T09:37:02.319Z,98272.34
2022-10-06T09:39:38.742Z,98301.97
2022-10-06T09:42:11.556Z,98307.97
2022-10-06T09:45:06.394Z,98288.22
2022-10-06T09:47:47.048Z,98258.16
2022-10-06T09:50:23.629Z,98273.38
2022-10-06T09:53:03.592Z,98287.88
2022-10-06T09:55:34.128Z,98290.03
2022-10-06T09:58:01.963Z,98249.00
2022-10-06T10:00:31.484Z,98270.19
2022-10-06T10:03:03.014Z,98220.22
2022-10-06T10:05:33.873Z,98257.00
2022-10-06T10:08:30.150Z,98260.75
2022-10-06T10:11:27.765Z,98266.16
2022-10-06T10:14:00.163Z,98248.25
2022-10-06T10:16:36.452Z,98249.19
2022-10-06T10:19:06.188Z,98259.75
2022-10-06T10:21:35.921Z,98251.31
2022-10-06T10:24:15.191Z,98238.38
2022-10-06T10:26:55.610Z,98240.44
2022-10-06T10:29:59.733Z,98226.63
2022-10-06T10:32:40.663Z,98247.63
2022-10-06T10:35:26.881Z,98233.66
2022-10-06T10:38:14.599Z,98241.69
2022-10-06T10:40:48.918Z,98228.84
2022-10-06T10:43:39.990Z,98220.34
2022-10-06T10:46:14.280Z,98213.25
2022-10-06T10:49:04.196Z,98202.78
2022-10-06T10:51:37.169Z,98221.44
2022-10-06T10:54:05.619Z,98223.75
2022-10-06T10:56:34.290Z,98223.47
2022-10-06T10:59:38.148Z,98195.91
2022-10-06T11:02:13.933Z,98210.28
2022-10-06T11:04:49.777Z,98224.34
2022-10-06T11:07:31.427Z,98218.59
2022-10-06T11:10:07.914Z,98213.47
2022-10-06T11:12:40.550Z,98210.59
2022-10-06T11:15:43.404Z,98203.34
2022-10-06T11:18:26.415Z,98206.66
2022-10-06T11:21:21.700Z,98194.56
2022-10-06T11:23:51.391Z,98203.25
2022-10-06T11:26:35.848Z,98188.72
2022-10-06T11:29:33.619Z,98196.88
2022-10-06T11:32:24.962Z,98192.09
2022-10-06T11:34:52.974Z,98184.44
2022-10-06T11:37:45.301Z,98184.72
2022-10-06T11:40:32.653Z,98187.03
2022-10-06T11:43:09.262Z,98189.06
2022-10-06T11:46:05.842Z,98193.72
2022-10-06T11:48:33.510Z,98183.72
2022-10-06T11:51:25.133Z,98187.00
2022-10-06T11:53:53.444Z,98163.25
2022-10-06T11:56:20.289Z,98185.25
2022-10-06T11:58:56.063Z,98179.31
2022-10-06T12:01:34.807Z,98180.34
2022-10-06T12:04:10.942Z,98176.00
2022-10-06T12:06:45.140Z,98172.66
2022-10-06T12:09:25.044Z,98162.59
2022-10-06T12:12:19.226Z,98163.25
2022-10-06T12:18:05.196Z,98161.25
2022-10-06T12:20:51.036Z,98167.91
2022-10-06T12:23:37.885Z,98149.22
2022-10-06T13:35:32.047Z,98135.13
2022-10-06T13:38:17.284Z,98128.84
2022-10-06T13:44:43.622Z,98127.53
2022-10-06T14:06:09.573Z,98103.53
2022-10-06T14:08:37.318Z,98122.72
2022-10-06T14:11:07.432Z,98125.53
2022-10-06T14:13:56.711Z,98121.06
2022-10-06T14:16:25.691Z,98124.56
2022-10-06T14:21:39.495Z,98124.50
2022-10-06T14:24:41.166Z,98129.50
2022-10-06T14:27:08.378Z,98138.03
2022-10-06T14:29:38.097Z,98128.22
2022-10-06T14:32:13.370Z,98131.28
2022-10-06T14:34:41.194Z,98133.31
2022-10-06T14:37:18.357Z,98130.47
2022-10-06T14:39:46.065Z,98119.66
2022-10-06T14:42:15.807Z,98121.38
2022-10-06T14:44:43.400Z,98122.06
2022-10-06T14:47:10.711Z,98118.56
2022-10-06T14:49:38.246Z,98121.38
2022-10-06T14:52:06.136Z,98133.38
2022-10-06T14:54:34.840Z,98132.72
2022-10-06T14:57:02.092Z,98126.88
2022-10-06T14:59:28.960Z,98119.03
2022-10-06T15:01:55.889Z,98129.69
2022-10-06T15:04:27.978Z,98126.66
2022-10-06T15:07:14.002Z,98138.13
2022-10-06T15:09:40.959Z,98142.19
2022-10-06T15:12:07.950Z,98142.47
2022-10-06T15:14:40.152Z,98143.75
2022-10-06T15:17:07.896Z,98149.66
2022-10-06T15:19:35.078Z,98135.91
2022-10-06T15:22:05.108Z,98151.50
2022-10-06T15:24:32.324Z,98139.84
2022-10-06T15:27:22.419Z,98155.88
2022-10-06T15:29:51.825Z,98151.03
2022-10-06T15:32:18.846Z,98152.16
2022-10-06T15:34:45.872Z,98163.72
2022-10-06T15:37:13.089Z,98135.16
2022-10-06T15:39:43.869Z,98158.59
2022-10-06T15:42:11.346Z,98174.56
2022-10-06T15:44:38.550Z,98172.28
2022-10-06T15:47:07.808Z,98169.16
2022-10-06T15:49:38.624Z,98170.91
2022-10-06T15:52:06.598Z,98169.09
2022-10-06T15:54:39.728Z,98191.28
2022-10-06T15:57:09.319Z,98185.19
2022-10-06T15:59:37.249Z,98195.91
2022-10-06T16:02:07.838Z,98192.41
2022-10-06T16:04:40.609Z,98189.91
2022-10-06T16:07:11.715Z,98195.03
2022-10-06T16:09:43.244Z,98195.72
2022-10-06T16:16:09.352Z,98178.31
2022-10-06T16:18:46.002Z,98188.06
2022-10-06T16:21:16.851Z,98178.19
2022-10-06T16:23:44.933Z,98203.53
2022-10-06T16:26:12.036Z,98178.34
2022-10-06T16:28:39.322Z,98176.38
2022-10-06T16:31:09.616Z,98185.78
2022-10-06T16:33:38.244Z,98209.47
2022-10-06T16:36:06.412Z,98179.63
2022-10-06T16:38:33.777Z,98218.88
2022-10-06T16:41:02.001Z,98204.59
2022-10-06T16:43:41.997Z,98214.66
2022-10-06T16:46:17.545Z,98216.03
2022-10-06T16:48:46.805Z,98227.41
2022-10-06T16:51:22.890Z,98207.09
2022-10-06T16:53:54.059Z,98192.97
2022-10-06T16:56:24.932Z,98230.38
2022-10-06T16:58:56.969Z,98188.38
2022-10-06T17:01:30.491Z,98245.03
2022-10-06T17:04:03.359Z,98207.00
2022-10-06T17:06:31.452Z,98248.31
2022-10-06T17:08:59.211Z,98220.88
2022-10-06T17:11:27.943Z,98184.50
2022-10-06T17:13:58.273Z,98183.31
2022-10-06T17:16:29.311Z,98232.19
2022-10-06T17:18:58.840Z,98245.19
2022-10-06T17:21:44.989Z,98213.31
2022-10-06T17:24:13.213Z,98228.16
2022-10-06T17:26:42.703Z,98203.94
2022-10-06T17:29:17.819Z,98253.38
2022-10-06T17:31:45.825Z,98265.44
2022-10-06T17:34:20.077Z,98230.81
2022-10-06T17:36:51.298Z,98268.22
2022-10-06T17:39:21.045Z,98275.03
2022-10-06T17:41:50.473Z,98246.25
2022-10-06T17:44:23.979Z,98246.84
2022-10-06T17:46:55.599Z,98238.34
2022-10-06T17:50:19.623Z,98263.88
2022-10-06T17:53:03.295Z,98242.19
2022-10-06T17:55:30.526Z,98229.81
2022-10-06T17:57:59.506Z,98249.47
2022-10-06T18:00:26.918Z,98250.44
2022-10-06T18:03:00.193Z,98215.66
2022-10-06T18:05:32.787Z,98228.81
2022-10-06T18:08:01.013Z,98256.53
2022-10-06T18:10:46.281Z,98263.97
2022-10-06T18:13:13.502Z,98298.25
2022-10-06T18:15:40.976Z,98288.78
2022-10-06T18:18:12.071Z,98292.38
2022-10-06T18:20:41.516Z,98295.72
2022-10-06T18:23:09.975Z,98300.38
2022-10-06T18:25:37.679Z,98287.78
2022-10-06T18:28:04.951Z,98306.00
2022-10-06T18:30:34.314Z,98298.69
2022-10-06T18:36:14.948Z,98288.25
2022-10-06T18:38:44.863Z,98310.03
2022-10-06T18:41:16.084Z,98299.94
2022-10-06T18:43:43.952Z,98299.09
2022-10-06T18:46:32.155Z,98306.69
2022-10-06T18:53:31.907Z,98309.50
2022-10-06T18:59:41.483Z,98281.38
2022-10-06T19:02:09.023Z,98311.34
2022-10-06T19:04:36.658Z,98300.56
2022-10-06T19:07:05.320Z,98304.59
2022-10-06T19:09:32.504Z,98315.72
2022-10-06T19:12:00.143Z,98322.47
2022-10-06T19:14:41.832Z,98302.53
2022-10-06T19:17:15.576Z,98280.91
2022-10-06T19:19:51.750Z,98325.25
2022-10-06T19:44:28.028Z,98355.88
2022-10-06T19:46:31.175Z,98327.69
2022-10-06T19:55:30.513Z,98345.78
2022-10-06T19:58:03.985Z,98344.28
2022-10-06T20:00:32.041Z,98351.50
2022-10-06T20:02:59.774Z,98368.91
2022-10-06T20:05:30.004Z,98377.19
2022-10-06T20:07:58.631Z,98337.72
2022-10-06T20:10:26.365Z,98341.72
2022-10-06T20:12:54.013Z,98329.91
2022-10-06T20:15:22.242Z,98326.72
2022-10-06T20:17:52.371Z,98315.59
2022-10-06T20:20:20.506Z,98378.28
2022-10-06T20:22:54.719Z,98372.56
2022-10-06T20:25:27.439Z,98373.53
2022-10-06T20:28:25.605Z,98343.63
2022-10-06T20:30:59.426Z,98386.00
2022-10-06T20:33:27.159Z,98337.63
2022-10-06T20:41:09.244Z,98374.59
2022-10-06T20:51:32.429Z,98388.38
2022-10-06T20:56:54.927Z,98386.28
2022-10-06T20:59:30.012Z,98378.53
2022-10-06T21:02:02.752Z,98378.41
2022-10-06T21:04:34.884Z,98375.78
2022-10-06T21:07:09.620Z,98382.19
2022-10-06T21:09:41.210Z,98378.19
2022-10-06T21:12:09.442Z,98368.72
2022-10-06T21:14:39.130Z,98374.03
2022-10-06T21:17:10.658Z,98370.75
2022-10-06T21:19:44.701Z,98370.56
2022-10-06T21:22:17.310Z,98367.41
2022-10-06T21:24:47.986Z,98377.34
2022-10-06T21:27:39.026Z,98379.31
2022-10-06T21:30:12.836Z,98369.09
2022-10-06T21:32:43.408Z,98369.22
2022-10-06T21:35:17.486Z,98373.34
2022-10-06T21:37:46.481Z,98374.75
2022-10-06T21:40:16.283Z,98362.78
2022-10-06T21:42:45.441Z,98372.88
2022-10-06T21:45:15.659Z,98372.38
2022-10-06T21:47:47.106Z,98372.38
2022-10-06T21:50:15.694Z,98369.88
2022-10-06T21:52:44.840Z,98368.38
2022-10-06T21:55:15.083Z,98363.31
2022-10-06T21:57:44.627Z,98363.50
2022-10-06T22:00:15.801Z,98368.56
2022-10-06T22:02:48.516Z,98367.06
2022-10-06T22:05:18.632Z,98366.31
2022-10-06T22:07:48.895Z,98360.69
2022-10-06T22:10:16.974Z,98361.81
2022-10-06T22:12:47.179Z,98361.09
2022-10-06T22:15:15.586Z,98357.41
2022-10-06T22:17:43.618Z,98356.56
2022-10-06T22:20:12.466Z,98351.63
2022-10-06T22:22:40.362Z,98350.78
2022-10-06T22:25:11.870Z,98352.75
2022-10-06T22:27:43.607Z,98356.19
2022-10-06T22:30:14.151Z,98365.00
2022-10-06T22:32:47.385Z,98360.97
2022-10-06T22:35:47.064Z,98361.31
2022-10-06T22:38:16.554Z,98355.63
2022-10-06T22:40:46.831Z,98358.97
2022-10-06T22:43:14.997Z,98360.47
2022-10-06T22:45:44.998Z,98357.97
2022-10-06T22:48:17.887Z,98357.47
2022-10-06T22:50:53.332Z,98361.22
2022-10-06T22:53:36.560Z,98349.22
2022-10-06T22:56:07.166Z,98357.34
2022-10-06T22:58:37.829Z,98360.81
2022-10-06T23:01:34.884Z,98369.41
2022-10-06T23:04:03.686Z,98362.50
2022-10-06T23:06:31.830Z,98362.69
2022-10-06T23:09:01.530Z,98369.03
2022-10-06T23:11:34.516Z,98363.13
2022-10-06T23:14:05.045Z,98371.31
2022-10-06T23:16:33.408Z,98370.22
2022-10-06T23:19:03.171Z,98367.69
2022-10-06T23:21:35.217Z,98377.31
2022-10-06T23:24:03.825Z,98370.47
2022-10-06T23:26:34.088Z,98373.28
2022-10-06T23:29:02.447Z,98365.03
2022-10-06T23:31:31.742Z,98373.81
2022-10-06T23:34:00.100Z,98374.16
2022-10-06T23:36:30.857Z,98378.66
2022-10-06T23:39:05.712Z,98362.34
2022-10-06T23:41:36.535Z,98377.31
2022-10-06T23:44:05.642Z,98377.19
2022-10-06T23:46:34.417Z,98379.91
2022-10-06T23:49:04.193Z,98376.53
2022-10-06T23:51:41.979Z,98378.22
2022-10-06T23:54:10.830Z,98381.00
2022-10-06T23:56:40.814Z,98380.53
2022-10-06T23:59:12.122Z,98382.31
